Zircon — V7KN6 — position and weather

sailwx.info

Track history (hours):
 
Tides and Currents Weather Stations Pressure Air Temp Water Temp Dewpoint Dewpoint Depression Visibility Wind Speed Wind Dir Waves Ship Positions

Zircon

Last reported at 2018-Jun-23 17:29 UTC. Time now 2018-Jun-23 17:34 UTC.
Position N 51°56' E 003°46'.

Length 183 m; draft 7.8 m.

Type: Tanker. MMSI: 538006179.

Date/timePositionNaut miles runAvg speedWind from/ knotsBaromVisibWave heightAir tempDewpointWater temp
2018-Jun-23 17:29N 51°56' E 003°46'0 1.0
2018-Jun-23 17:00N 51°56' E 003°46'2 4.6
2018-Jun-23 16:30N 51°58' E 003°44'4 8.0
2018-Jun-23 16:00N 51°58' E 003°37'5 9.7
2018-Jun-23 15:30N 51°56' E 003°30'3 6.3
2018-Jun-23 15:00N 51°55' E 003°25'612.4
2018-Jun-23 14:30N 51°54' E 003°15'612.9
2018-Jun-23 14:00N 51°52' E 003°05'713.0
2018-Jun-23 13:30N 51°50' E 002°55'713.2
2018-Jun-23 13:00N 51°48' E 002°45'713.1
2018-Jun-23 12:30N 51°45' E 002°35'813.9
2018-Jun-23 11:58N 51°39' E 002°28'714.1
2018-Jun-23 11:30N 51°34' E 002°21'714.4
2018-Jun-23 11:01N 51°29' E 002°13'714.6
2018-Jun-23 10:30N 51°24' E 002°05'714.6
2018-Jun-23 10:00N 51°19' E 001°57'714.9
2018-Jun-23 09:30N 51°13' E 001°49'815.2
2018-Jun-23 09:00N 51°07' E 001°41'815.8
2018-Jun-23 08:30N 51°00' E 001°35'816.3
2018-Jun-23 08:00N 50°54' E 001°27'815.4
2018-Jun-23 07:30N 50°46' E 001°23'714.0
2018-Jun-23 07:00N 50°40' E 001°20'714.3
2018-Jun-23 06:30N 50°35' E 001°11'714.1
2018-Jun-23 06:00N 50°31' E 001°02'714.0
2018-Jun-23 05:30N 50°28' E 000°52'714.5
2018-Jun-23 05:00N 50°26' E 000°41'714.7
2018-Jun-23 04:30N 50°24' E 000°30'714.7
2018-Jun-23 04:00N 50°22' E 000°19'714.7
2018-Jun-23 03:31N 50°20' E 000°08'714.3
2018-Jun-23 03:00N 50°18' W 000°03'713.9
2018-Jun-23 02:30N 50°16' W 000°13'713.7
2018-Jun-23 02:00N 50°14' W 000°24'713.4
2018-Jun-23 01:30N 50°13' W 000°34'613.0
2018-Jun-23 01:00N 50°11' W 000°44'612.6
2018-Jun-23 00:31N 50°09' W 000°53'612.0
2018-Jun-23 00:00N 50°08' W 001°02'611.6
2018-Jun-22 23:30N 50°06' W 001°11'611.2
2018-Jun-22 23:00N 50°05' W 001°19'510.8
2018-Jun-22 22:30N 50°04' W 001°28'510.5
2018-Jun-22 22:00N 50°02' W 001°35'510.3
2018-Jun-22 21:30N 50°01' W 001°43'510.2
2018-Jun-22 21:00N 49°60' W 001°51'510.5
2018-Jun-22 20:30N 49°58' W 001°59'611.1
2018-Jun-22 20:00N 49°57' W 002°07'611.8
2018-Jun-22 19:30N 49°55' W 002°16'612.6
2018-Jun-22 19:00N 49°54' W 002°25'612.9
2018-Jun-22 18:30N 49°52' W 002°35'713.2
2018-Jun-22 18:00N 49°51' W 002°45'713.2
2018-Jun-22 17:30N 49°49' W 002°55'713.5
2018-Jun-22 17:00N 49°47' W 003°05'713.6
2018-Jun-22 16:30N 49°46' W 003°15'713.5
2018-Jun-22 16:00N 49°46' W 003°26'713.4
2018-Jun-22 15:30N 49°45' W 003°36'713.6
2018-Jun-22 15:00N 49°44' W 003°46'5210.0
2018-Jun-22 09:48N 49°57' W 005°05'511.2
2018-Jun-22 09:21N 50°01' W 005°01'310.0
2018-Jun-22 09:00N 50°05' W 005°01'3 5.9
2018-Jun-22 08:29N 50°07' W 005°04'0 0.1
2018-Jun-22 07:59N 50°07' W 005°04'0 0.0
2018-Jun-22 07:26N 50°07' W 005°04'0 0.0
2018-Jun-22 06:56N 50°07' W 005°04'0 0.0
2018-Jun-22 06:30N 50°07' W 005°04'0 0.0
2018-Jun-22 06:00N 50°07' W 005°04'0 0.0
2018-Jun-22 05:30N 50°07' W 005°04'0 0.1
2018-Jun-22 05:00N 50°07' W 005°04'0 0.2
2018-Jun-22 04:30N 50°07' W 005°04'2 5.0
2018-Jun-22 04:00N 50°06' W 005°01'3 6.9
2018-Jun-22 03:30N 50°02' W 005°01'3 6.2
2018-Jun-22 03:00N 49°59' W 005°03'611.3
2018-Jun-22 02:30N 49°55' W 005°07'711.7
2018-Jun-22 01:56N 49°49' W 005°14'1411.5
2018-Jun-22 00:43N 49°38' W 005°27'4812.0
2018-Jun-21 20:43N 49°00' W 006°12'4711.8
2018-Jun-21 16:43N 48°13' W 006°19'6912.0
2018-Jun-21 10:58N 47°10' W 005°40'712.7
2018-Jun-21 10:26N 47°03' W 005°36'612.7
2018-Jun-21 10:00N 46°59' W 005°32'1012.9
2018-Jun-21 09:15N 46°50' W 005°26'513.3
2018-Jun-21 08:52N 46°45' W 005°23'513.2
2018-Jun-21 08:27N 46°41' W 005°19'613.2
2018-Jun-21 07:59N 46°35' W 005°15'612.9
2018-Jun-21 07:30N 46°29' W 005°11'813.3
2018-Jun-21 06:53N 46°22' W 005°06'513.3
2018-Jun-21 06:30N 46°17' W 005°03'713.1
2018-Jun-21 05:59N 46°11' W 004°58'612.9
2018-Jun-21 05:30N 46°06' W 004°54'712.8
2018-Jun-21 05:00N 45°60' W 004°50'712.6
2018-Jun-21 04:27N 45°54' W 004°46'613.0
2018-Jun-21 04:00N 45°48' W 004°42'912.8
2018-Jun-21 03:18N 45°40' W 004°36'412.6
2018-Jun-21 03:00N 45°37' W 004°34'612.5
2018-Jun-21 02:30N 45°32' W 004°30'612.7
2018-Jun-21 02:00N 45°26' W 004°26'912.7
2018-Jun-21 01:20N 45°18' W 004°21'413.0
2018-Jun-21 01:00N 45°14' W 004°18'713.0
2018-Jun-21 00:25N 45°07' W 004°14'3012.9
2018-Jun-20 22:03N 44°40' W 003°55'112.9
2018-Jun-20 21:56N 44°39' W 003°54'913.0
2018-Jun-20 21:13N 44°30' W 003°48'1012.8
2018-Jun-20 20:25N 44°21' W 003°41'512.8
2018-Jun-20 19:59N 44°16' W 003°38'2413.0
2018-Jun-20 18:10N 43°55' W 003°24'212.6
2018-Jun-20 18:00N 43°53' W 003°22'712.7
2018-Jun-20 17:26N 43°47' W 003°18'512.8
2018-Jun-20 17:00N 43°42' W 003°14'612.4
2018-Jun-20 16:30N 43°37' W 003°09'2 4.8
2018-Jun-20 16:00N 43°35' W 003°06'3 5.3
2018-Jun-20 15:30N 43°33' W 003°09'1 1.8
2018-Jun-20 15:00N 43°33' W 003°10'0 0.9
2018-Jun-20 14:30N 43°34' W 003°10'1 1.2
2018-Jun-20 14:00N 43°34' W 003°10'1 1.0
2018-Jun-20 13:30N 43°34' W 003°11'1 1.7
2018-Jun-20 13:00N 43°35' W 003°11'0 0.8
2018-Jun-20 12:30N 43°35' W 003°12'1 0.8
2018-Jun-20 11:52N 43°35' W 003°11'0 1.0
2018-Jun-20 11:29N 43°35' W 003°11'1 1.1
2018-Jun-20 11:00N 43°34' W 003°11'0 0.8
2018-Jun-20 10:30N 43°34' W 003°11'0 0.8
2018-Jun-20 10:00N 43°34' W 003°10'1 3.0
2018-Jun-20 09:30N 43°34' W 003°08'2 4.1
2018-Jun-20 09:00N 43°35' W 003°06'1 1.9
2018-Jun-20 08:30N 43°35' W 003°05'1 2.3
2018-Jun-20 08:00N 43°35' W 003°06'1 1.3
2018-Jun-20 07:30N 43°35' W 003°05'0 0.5
2018-Jun-20 07:00N 43°35' W 003°05'1 1.3
2018-Jun-20 06:30N 43°35' W 003°04'0 0.5
2018-Jun-20 06:00N 43°35' W 003°04'0 0.4
2018-Jun-20 05:27N 43°35' W 003°04'0 0.3
2018-Jun-20 05:00N 43°35' W 003°04'0 0.5
2018-Jun-20 04:30N 43°35' W 003°04'0 0.2
2018-Jun-20 04:00N 43°35' W 003°04'0 0.1
2018-Jun-20 03:30N 43°35' W 003°04'0 0.7
2018-Jun-20 03:00N 43°36' W 003°04'0 0.8
2018-Jun-20 02:30N 43°36' W 003°04'0 0.4
2018-Jun-20 02:00N 43°36' W 003°04'0 0.4
2018-Jun-20 01:30N 43°36' W 003°04'0 0.7
2018-Jun-20 00:58N 43°36' W 003°04'0 0.1
2018-Jun-20 00:30N 43°36' W 003°04'0 0.3
2018-Jun-20 00:00N 43°36' W 003°04'0 0.7
2018-Jun-19 23:30N 43°35' W 003°04'0 0.6
2018-Jun-19 23:00N 43°35' W 003°04'0 0.8
2018-Jun-19 22:30N 43°35' W 003°03'0 0.3
2018-Jun-19 22:00N 43°35' W 003°03'1 1.3
2018-Jun-19 21:30N 43°36' W 003°02'2 3.2
2018-Jun-19 21:00N 43°37' W 003°02'1 1.2
2018-Jun-19 20:29N 43°37' W 003°02'2 3.4
2018-Jun-19 20:00N 43°36' W 003°04'0 0.3
2018-Jun-19 19:28N 43°36' W 003°04'0 0.8
2018-Jun-19 19:00N 43°35' W 003°04'2 4.6
2018-Jun-19 18:29N 43°33' W 003°05'0 0.6
2018-Jun-19 18:00N 43°33' W 003°05'0 0.6
2018-Jun-19 17:30N 43°33' W 003°04'0 0.8
2018-Jun-19 17:00N 43°34' W 003°04'0 0.6
2018-Jun-19 16:30N 43°34' W 003°04'0 0.6
2018-Jun-19 16:00N 43°34' W 003°04'0 0.2
2018-Jun-19 15:30N 43°34' W 003°04'1 1.3
2018-Jun-19 15:00N 43°34' W 003°03'2 3.0
2018-Jun-19 14:30N 43°32' W 003°02'1 1.3
2018-Jun-19 14:00N 43°33' W 003°02'0 0.6
2018-Jun-19 13:30N 43°33' W 003°02'0 0.6
2018-Jun-19 13:00N 43°34' W 003°02'0 0.6
2018-Jun-19 12:30N 43°34' W 003°02'0 0.8
2018-Jun-19 12:00N 43°34' W 003°03'2 3.3
2018-Jun-19 11:30N 43°34' W 003°05'5 9.7
2018-Jun-19 11:00N 43°34' W 003°12'2 4.8
2018-Jun-19 10:30N 43°34' W 003°15'2 4.9
2018-Jun-19 10:00N 43°34' W 003°19'2 4.5
2018-Jun-19 09:28N 43°34' W 003°22'2 4.1
2018-Jun-19 09:00N 43°34' W 003°20'3 5.1
2018-Jun-19 08:30N 43°33' W 003°16'2 4.2
2018-Jun-19 08:00N 43°33' W 003°13'2 4.5
2018-Jun-19 07:30N 43°33' W 003°10'4 8.0
2018-Jun-19 07:00N 43°33' W 003°05'3 5.1
2018-Jun-19 06:30N 43°33' W 003°01'2 4.0
2018-Jun-19 06:00N 43°33' W 002°58'1 1.5
2018-Jun-19 05:29N 43°34' W 002°58'3 5.3
2018-Jun-19 04:59N 43°34' W 003°02'2 5.2
2018-Jun-19 04:30N 43°34' W 003°05'3 5.0
2018-Jun-19 04:00N 43°35' W 003°09'2 4.7
2018-Jun-19 03:30N 43°34' W 003°12'2 4.5
2018-Jun-19 03:00N 43°34' W 003°15'2 4.5
2018-Jun-19 02:30N 43°34' W 003°18'2 4.7
2018-Jun-19 02:00N 43°34' W 003°21'1 1.2
2018-Jun-19 01:30N 43°34' W 003°21'2 4.2
2018-Jun-19 01:00N 43°34' W 003°18'2 4.2
2018-Jun-19 00:30N 43°34' W 003°15'2 4.1
2018-Jun-19 00:00N 43°34' W 003°13'2 4.1
2018-Jun-18 23:29N 43°34' W 003°10'1 2.2
2018-Jun-18 23:00N 43°34' W 003°08'0 0.8
2018-Jun-18 22:26N 43°34' W 003°09'1 1.3
2018-Jun-18 22:00N 43°33' W 003°09'4 8.0
2018-Jun-18 21:30N 43°29' W 003°07'5 9.5
2018-Jun-18 21:00N 43°25' W 003°06'3 5.4
2018-Jun-18 20:30N 43°22' W 003°06'0 0.2
2018-Jun-18 20:00N 43°22' W 003°06'0 0.0
2018-Jun-18 19:27N 43°22' W 003°06'0 0.0
2018-Jun-18 19:00N 43°22' W 003°06'0 0.0
2018-Jun-18 18:27N 43°22' W 003°06'0 0.0
2018-Jun-18 17:57N 43°22' W 003°06'0 0.0
2018-Jun-18 17:30N 43°22' W 003°06'0 0.0
2018-Jun-18 17:00N 43°22' W 003°06'0 0.0
2018-Jun-18 16:30N 43°22' W 003°06'0 0.0
2018-Jun-18 16:00N 43°22' W 003°06'0 0.0
2018-Jun-18 15:27N 43°22' W 003°06'0 0.0
2018-Jun-18 14:51N 43°22' W 003°06'0 0.0
2018-Jun-18 14:30N 43°22' W 003°06'0 0.0
2018-Jun-18 14:00N 43°22' W 003°06'0 0.0
2018-Jun-18 13:30N 43°22' W 003°06'0 0.0
2018-Jun-18 13:00N 43°22' W 003°06'0 0.0
2018-Jun-18 12:30N 43°22' W 003°06'0 0.0
2018-Jun-18 11:57N 43°22' W 003°06'0 0.0
2018-Jun-18 11:24N 43°22' W 003°06'0 0.0
2018-Jun-18 10:57N 43°22' W 003°06'0 0.0
2018-Jun-18 10:30N 43°22' W 003°06'0 0.0
2018-Jun-18 10:00N 43°22' W 003°06'0 0.0
2018-Jun-18 09:30N 43°22' W 003°06'0 0.0
2018-Jun-18 09:00N 43°22' W 003°06'0 0.0
2018-Jun-18 08:30N 43°22' W 003°06'0 0.0
2018-Jun-18 08:00N 43°22' W 003°06'0 0.0
2018-Jun-18 07:30N 43°22' W 003°06'0 0.0
2018-Jun-18 07:00N 43°22' W 003°06'0 0.0
2018-Jun-18 06:30N 43°22' W 003°06'0 0.0
2018-Jun-18 05:57N 43°22' W 003°06'0 0.0
2018-Jun-18 05:27N 43°22' W 003°06'0 0.0
2018-Jun-18 05:00N 43°22' W 003°06'0 0.0
2018-Jun-18 04:30N 43°22' W 003°06'0 0.0
2018-Jun-18 04:00N 43°22' W 003°06'0 0.0
2018-Jun-18 03:30N 43°22' W 003°06'0 0.0
2018-Jun-18 03:00N 43°22' W 003°06'0 0.0
2018-Jun-18 02:30N 43°22' W 003°06'0 0.0
2018-Jun-18 01:57N 43°22' W 003°06'0 0.0
2018-Jun-18 01:30N 43°22' W 003°06'0 0.0
2018-Jun-18 01:00N 43°22' W 003°06'0 0.0
2018-Jun-18 00:30N 43°22' W 003°06'0 0.0
2018-Jun-17 23:57N 43°22' W 003°06'0 0.0
2018-Jun-17 23:30N 43°22' W 003°06'0 0.0
2018-Jun-17 23:00N 43°22' W 003°06'0 0.0
2018-Jun-17 22:27N 43°22' W 003°06'0 0.0
2018-Jun-17 22:00N 43°22' W 003°06'0 0.0
2018-Jun-17 21:30N 43°22' W 003°06'0 0.0
2018-Jun-17 21:00N 43°22' W 003°06'0 0.0
2018-Jun-17 20:30N 43°22' W 003°06'0 0.0
2018-Jun-17 20:00N 43°22' W 003°06'0 0.0
2018-Jun-17 19:30N 43°22' W 003°06'0 0.0
2018-Jun-17 19:00N 43°22' W 003°06'0 0.0
2018-Jun-17 18:30N 43°22' W 003°06'0 0.0
2018-Jun-17 18:00N 43°22' W 003°06'0 0.0
2018-Jun-17 17:30N 43°22' W 003°06'0 0.0
2018-Jun-17 17:00N 43°22' W 003°06'0 0.0
2018-Jun-17 16:30N 43°22' W 003°06'0 0.0
2018-Jun-17 16:00N 43°22' W 003°06'0 0.0
2018-Jun-17 15:30N 43°22' W 003°06'0 0.0
2018-Jun-17 15:00N 43°22' W 003°06'0 0.0
2018-Jun-17 14:30N 43°22' W 003°06'0 0.0
2018-Jun-17 14:00N 43°22' W 003°06'0 0.0
2018-Jun-17 13:27N 43°22' W 003°06'0 0.0
2018-Jun-17 13:00N 43°22' W 003°06'0 0.0
2018-Jun-17 12:30N 43°22' W 003°06'0 0.0
2018-Jun-17 12:00N 43°22' W 003°06'0 0.0
2018-Jun-17 11:30N 43°22' W 003°06'0 0.0
2018-Jun-17 11:00N 43°22' W 003°06'0 0.0
2018-Jun-17 10:30N 43°22' W 003°06'0 0.0
2018-Jun-17 10:00N 43°22' W 003°06'0 0.0
2018-Jun-17 09:30N 43°22' W 003°06'0 0.0
2018-Jun-17 09:00N 43°22' W 003°06'0 0.0
2018-Jun-17 08:30N 43°22' W 003°06'0 0.0
2018-Jun-17 07:57N 43°22' W 003°06'0 0.0
2018-Jun-17 07:30N 43°22' W 003°06'0 0.0
2018-Jun-17 07:00N 43°22' W 003°06'0 0.0
2018-Jun-17 06:30N 43°22' W 003°06'0 0.0
2018-Jun-17 06:00N 43°22' W 003°06'0 0.0
2018-Jun-17 05:30N 43°22' W 003°06'0 0.0
2018-Jun-17 05:00N 43°22' W 003°06'0 0.0
2018-Jun-17 04:30N 43°22' W 003°06'0 0.0
2018-Jun-17 03:51N 43°22' W 003°06'0 0.0
2018-Jun-17 03:30N 43°22' W 003°06'0 0.0
2018-Jun-17 03:00N 43°22' W 003°06'0 0.0
2018-Jun-17 02:30N 43°22' W 003°06'0 0.0
2018-Jun-17 01:57N 43°22' W 003°06'0 0.0
2018-Jun-17 01:30N 43°22' W 003°06'0 0.0
2018-Jun-17 01:00N 43°22' W 003°06'0 0.0
2018-Jun-17 00:30N 43°22' W 003°06'0 0.0
2018-Jun-17 00:00N 43°22' W 003°06'0 0.0
2018-Jun-16 23:30N 43°22' W 003°06'0 0.0
2018-Jun-16 23:00N 43°22' W 003°06'0 0.7
2018-Jun-16 22:31N 43°22' W 003°06'3 5.4
2018-Jun-16 22:00N 43°25' W 003°06'2 5.0
2018-Jun-16 21:30N 43°27' W 003°08'1 2.7
2018-Jun-16 21:00N 43°28' W 003°09'1 2.9
2018-Jun-16 20:30N 43°29' W 003°10'5 9.3
2018-Jun-16 20:00N 43°32' W 003°15'612.9
2018-Jun-16 19:30N 43°34' W 003°24'713.1
2018-Jun-16 18:59N 43°36' W 003°33'612.6
2018-Jun-16 18:30N 43°37' W 003°41'613.0
2018-Jun-16 18:00N 43°38' W 003°50'6012.9
2018-Jun-16 13:21N 43°50' W 005°11'612.9
2018-Jun-16 12:52N 43°52' W 005°20'1413.1
2018-Jun-16 11:49N 43°55' W 005°39'612.8
2018-Jun-16 11:20N 43°56' W 005°47'  
Track history (hours):
 
Tides and Currents Weather Stations Pressure Air Temp Water Temp Dewpoint Dewpoint Depression Visibility Wind Speed Wind Dir Waves Ship Positions

Zircon

Last reported at 2018-Jun-23 17:29 UTC. Time now 2018-Jun-23 17:34 UTC.
Position N 51°56' E 003°46'.

Length 183 m; draft 7.8 m.

Type: Tanker. MMSI: 538006179.

Date/timePositionNaut miles runAvg speedWind from/ knotsBaromVisibWave heightAir tempDewpointWater temp
2018-Jun-23 17:29N 51°56' E 003°46'0 1.0
2018-Jun-23 17:00N 51°56' E 003°46'2 4.6
2018-Jun-23 16:30N 51°58' E 003°44'4 8.0
2018-Jun-23 16:00N 51°58' E 003°37'5 9.7
2018-Jun-23 15:30N 51°56' E 003°30'3 6.3
2018-Jun-23 15:00N 51°55' E 003°25'612.4
2018-Jun-23 14:30N 51°54' E 003°15'612.9
2018-Jun-23 14:00N 51°52' E 003°05'713.0
2018-Jun-23 13:30N 51°50' E 002°55'713.2
2018-Jun-23 13:00N 51°48' E 002°45'713.1
2018-Jun-23 12:30N 51°45' E 002°35'813.9
2018-Jun-23 11:58N 51°39' E 002°28'714.1
2018-Jun-23 11:30N 51°34' E 002°21'714.4
2018-Jun-23 11:01N 51°29' E 002°13'714.6
2018-Jun-23 10:30N 51°24' E 002°05'714.6
2018-Jun-23 10:00N 51°19' E 001°57'714.9
2018-Jun-23 09:30N 51°13' E 001°49'815.2
2018-Jun-23 09:00N 51°07' E 001°41'815.8
2018-Jun-23 08:30N 51°00' E 001°35'816.3
2018-Jun-23 08:00N 50°54' E 001°27'815.4
2018-Jun-23 07:30N 50°46' E 001°23'714.0
2018-Jun-23 07:00N 50°40' E 001°20'714.3
2018-Jun-23 06:30N 50°35' E 001°11'714.1
2018-Jun-23 06:00N 50°31' E 001°02'714.0
2018-Jun-23 05:30N 50°28' E 000°52'714.5
2018-Jun-23 05:00N 50°26' E 000°41'714.7
2018-Jun-23 04:30N 50°24' E 000°30'714.7
2018-Jun-23 04:00N 50°22' E 000°19'714.7
2018-Jun-23 03:31N 50°20' E 000°08'714.3
2018-Jun-23 03:00N 50°18' W 000°03'713.9
2018-Jun-23 02:30N 50°16' W 000°13'713.7
2018-Jun-23 02:00N 50°14' W 000°24'713.4
2018-Jun-23 01:30N 50°13' W 000°34'613.0
2018-Jun-23 01:00N 50°11' W 000°44'612.6
2018-Jun-23 00:31N 50°09' W 000°53'612.0
2018-Jun-23 00:00N 50°08' W 001°02'611.6
2018-Jun-22 23:30N 50°06' W 001°11'611.2
2018-Jun-22 23:00N 50°05' W 001°19'510.8
2018-Jun-22 22:30N 50°04' W 001°28'510.5
2018-Jun-22 22:00N 50°02' W 001°35'510.3
2018-Jun-22 21:30N 50°01' W 001°43'510.2
2018-Jun-22 21:00N 49°60' W 001°51'510.5
2018-Jun-22 20:30N 49°58' W 001°59'611.1
2018-Jun-22 20:00N 49°57' W 002°07'611.8
2018-Jun-22 19:30N 49°55' W 002°16'612.6
2018-Jun-22 19:00N 49°54' W 002°25'612.9
2018-Jun-22 18:30N 49°52' W 002°35'713.2
2018-Jun-22 18:00N 49°51' W 002°45'713.2
2018-Jun-22 17:30N 49°49' W 002°55'713.5
2018-Jun-22 17:00N 49°47' W 003°05'713.6
2018-Jun-22 16:30N 49°46' W 003°15'713.5
2018-Jun-22 16:00N 49°46' W 003°26'713.4
2018-Jun-22 15:30N 49°45' W 003°36'713.6
2018-Jun-22 15:00N 49°44' W 003°46'5210.0
2018-Jun-22 09:48N 49°57' W 005°05'511.2
2018-Jun-22 09:21N 50°01' W 005°01'310.0
2018-Jun-22 09:00N 50°05' W 005°01'3 5.9
2018-Jun-22 08:29N 50°07' W 005°04'0 0.1
2018-Jun-22 07:59N 50°07' W 005°04'0 0.0
2018-Jun-22 07:26N 50°07' W 005°04'0 0.0
2018-Jun-22 06:56N 50°07' W 005°04'0 0.0
2018-Jun-22 06:30N 50°07' W 005°04'0 0.0
2018-Jun-22 06:00N 50°07' W 005°04'0 0.0
2018-Jun-22 05:30N 50°07' W 005°04'0 0.1
2018-Jun-22 05:00N 50°07' W 005°04'0 0.2
2018-Jun-22 04:30N 50°07' W 005°04'2 5.0
2018-Jun-22 04:00N 50°06' W 005°01'3 6.9
2018-Jun-22 03:30N 50°02' W 005°01'3 6.2
2018-Jun-22 03:00N 49°59' W 005°03'611.3
2018-Jun-22 02:30N 49°55' W 005°07'711.7
2018-Jun-22 01:56N 49°49' W 005°14'1411.5
2018-Jun-22 00:43N 49°38' W 005°27'4812.0
2018-Jun-21 20:43N 49°00' W 006°12'4711.8
2018-Jun-21 16:43N 48°13' W 006°19'6912.0
2018-Jun-21 10:58N 47°10' W 005°40'712.7
2018-Jun-21 10:26N 47°03' W 005°36'612.7
2018-Jun-21 10:00N 46°59' W 005°32'1012.9
2018-Jun-21 09:15N 46°50' W 005°26'513.3
2018-Jun-21 08:52N 46°45' W 005°23'513.2
2018-Jun-21 08:27N 46°41' W 005°19'613.2
2018-Jun-21 07:59N 46°35' W 005°15'612.9
2018-Jun-21 07:30N 46°29' W 005°11'813.3
2018-Jun-21 06:53N 46°22' W 005°06'513.3
2018-Jun-21 06:30N 46°17' W 005°03'713.1
2018-Jun-21 05:59N 46°11' W 004°58'612.9
2018-Jun-21 05:30N 46°06' W 004°54'712.8
2018-Jun-21 05:00N 45°60' W 004°50'712.6
2018-Jun-21 04:27N 45°54' W 004°46'613.0
2018-Jun-21 04:00N 45°48' W 004°42'912.8
2018-Jun-21 03:18N 45°40' W 004°36'412.6
2018-Jun-21 03:00N 45°37' W 004°34'612.5
2018-Jun-21 02:30N 45°32' W 004°30'612.7
2018-Jun-21 02:00N 45°26' W 004°26'912.7
2018-Jun-21 01:20N 45°18' W 004°21'413.0
2018-Jun-21 01:00N 45°14' W 004°18'713.0
2018-Jun-21 00:25N 45°07' W 004°14'3012.9
2018-Jun-20 22:03N 44°40' W 003°55'112.9
2018-Jun-20 21:56N 44°39' W 003°54'913.0
2018-Jun-20 21:13N 44°30' W 003°48'1012.8
2018-Jun-20 20:25N 44°21' W 003°41'512.8
2018-Jun-20 19:59N 44°16' W 003°38'2413.0
2018-Jun-20 18:10N 43°55' W 003°24'212.6
2018-Jun-20 18:00N 43°53' W 003°22'712.7
2018-Jun-20 17:26N 43°47' W 003°18'512.8
2018-Jun-20 17:00N 43°42' W 003°14'612.4
2018-Jun-20 16:30N 43°37' W 003°09'2 4.8
2018-Jun-20 16:00N 43°35' W 003°06'3 5.3
2018-Jun-20 15:30N 43°33' W 003°09'1 1.8
2018-Jun-20 15:00N 43°33' W 003°10'0 0.9
2018-Jun-20 14:30N 43°34' W 003°10'1 1.2
2018-Jun-20 14:00N 43°34' W 003°10'1 1.0
2018-Jun-20 13:30N 43°34' W 003°11'1 1.7
2018-Jun-20 13:00N 43°35' W 003°11'0 0.8
2018-Jun-20 12:30N 43°35' W 003°12'1 0.8
2018-Jun-20 11:52N 43°35' W 003°11'0 1.0
2018-Jun-20 11:29N 43°35' W 003°11'1 1.1
2018-Jun-20 11:00N 43°34' W 003°11'0 0.8
2018-Jun-20 10:30N 43°34' W 003°11'0 0.8
2018-Jun-20 10:00N 43°34' W 003°10'1 3.0
2018-Jun-20 09:30N 43°34' W 003°08'2 4.1
2018-Jun-20 09:00N 43°35' W 003°06'1 1.9
2018-Jun-20 08:30N 43°35' W 003°05'1 2.3
2018-Jun-20 08:00N 43°35' W 003°06'1 1.3
2018-Jun-20 07:30N 43°35' W 003°05'0 0.5
2018-Jun-20 07:00N 43°35' W 003°05'1 1.3
2018-Jun-20 06:30N 43°35' W 003°04'0 0.5
2018-Jun-20 06:00N 43°35' W 003°04'0 0.4
2018-Jun-20 05:27N 43°35' W 003°04'0 0.3
2018-Jun-20 05:00N 43°35' W 003°04'0 0.5
2018-Jun-20 04:30N 43°35' W 003°04'0 0.2
2018-Jun-20 04:00N 43°35' W 003°04'0 0.1
2018-Jun-20 03:30N 43°35' W 003°04'0 0.7
2018-Jun-20 03:00N 43°36' W 003°04'0 0.8
2018-Jun-20 02:30N 43°36' W 003°04'0 0.4
2018-Jun-20 02:00N 43°36' W 003°04'0 0.4
2018-Jun-20 01:30N 43°36' W 003°04'0 0.7
2018-Jun-20 00:58N 43°36' W 003°04'0 0.1
2018-Jun-20 00:30N 43°36' W 003°04'0 0.3
2018-Jun-20 00:00N 43°36' W 003°04'0 0.7
2018-Jun-19 23:30N 43°35' W 003°04'0 0.6
2018-Jun-19 23:00N 43°35' W 003°04'0 0.8
2018-Jun-19 22:30N 43°35' W 003°03'0 0.3
2018-Jun-19 22:00N 43°35' W 003°03'1 1.3
2018-Jun-19 21:30N 43°36' W 003°02'2 3.2
2018-Jun-19 21:00N 43°37' W 003°02'1 1.2
2018-Jun-19 20:29N 43°37' W 003°02'2 3.4
2018-Jun-19 20:00N 43°36' W 003°04'0 0.3
2018-Jun-19 19:28N 43°36' W 003°04'0 0.8
2018-Jun-19 19:00N 43°35' W 003°04'2 4.6
2018-Jun-19 18:29N 43°33' W 003°05'0 0.6
2018-Jun-19 18:00N 43°33' W 003°05'0 0.6
2018-Jun-19 17:30N 43°33' W 003°04'0 0.8
2018-Jun-19 17:00N 43°34' W 003°04'0 0.6
2018-Jun-19 16:30N 43°34' W 003°04'0 0.6
2018-Jun-19 16:00N 43°34' W 003°04'0 0.2
2018-Jun-19 15:30N 43°34' W 003°04'1 1.3
2018-Jun-19 15:00N 43°34' W 003°03'2 3.0
2018-Jun-19 14:30N 43°32' W 003°02'1 1.3
2018-Jun-19 14:00N 43°33' W 003°02'0 0.6
2018-Jun-19 13:30N 43°33' W 003°02'0 0.6
2018-Jun-19 13:00N 43°34' W 003°02'0 0.6
2018-Jun-19 12:30N 43°34' W 003°02'0 0.8
2018-Jun-19 12:00N 43°34' W 003°03'2 3.3
2018-Jun-19 11:30N 43°34' W 003°05'5 9.7
2018-Jun-19 11:00N 43°34' W 003°12'2 4.8
2018-Jun-19 10:30N 43°34' W 003°15'2 4.9
2018-Jun-19 10:00N 43°34' W 003°19'2 4.5
2018-Jun-19 09:28N 43°34' W 003°22'2 4.1
2018-Jun-19 09:00N 43°34' W 003°20'3 5.1
2018-Jun-19 08:30N 43°33' W 003°16'2 4.2
2018-Jun-19 08:00N 43°33' W 003°13'2 4.5
2018-Jun-19 07:30N 43°33' W 003°10'4 8.0
2018-Jun-19 07:00N 43°33' W 003°05'3 5.1
2018-Jun-19 06:30N 43°33' W 003°01'2 4.0
2018-Jun-19 06:00N 43°33' W 002°58'1 1.5
2018-Jun-19 05:29N 43°34' W 002°58'3 5.3
2018-Jun-19 04:59N 43°34' W 003°02'2 5.2
2018-Jun-19 04:30N 43°34' W 003°05'3 5.0
2018-Jun-19 04:00N 43°35' W 003°09'2 4.7
2018-Jun-19 03:30N 43°34' W 003°12'2 4.5
2018-Jun-19 03:00N 43°34' W 003°15'2 4.5
2018-Jun-19 02:30N 43°34' W 003°18'2 4.7
2018-Jun-19 02:00N 43°34' W 003°21'1 1.2
2018-Jun-19 01:30N 43°34' W 003°21'2 4.2
2018-Jun-19 01:00N 43°34' W 003°18'2 4.2
2018-Jun-19 00:30N 43°34' W 003°15'2 4.1
2018-Jun-19 00:00N 43°34' W 003°13'2 4.1
2018-Jun-18 23:29N 43°34' W 003°10'1 2.2
2018-Jun-18 23:00N 43°34' W 003°08'0 0.8
2018-Jun-18 22:26N 43°34' W 003°09'1 1.3
2018-Jun-18 22:00N 43°33' W 003°09'4 8.0
2018-Jun-18 21:30N 43°29' W 003°07'5 9.5
2018-Jun-18 21:00N 43°25' W 003°06'3 5.4
2018-Jun-18 20:30N 43°22' W 003°06'0 0.2
2018-Jun-18 20:00N 43°22' W 003°06'0 0.0
2018-Jun-18 19:27N 43°22' W 003°06'0 0.0
2018-Jun-18 19:00N 43°22' W 003°06'0 0.0
2018-Jun-18 18:27N 43°22' W 003°06'0 0.0
2018-Jun-18 17:57N 43°22' W 003°06'0 0.0
2018-Jun-18 17:30N 43°22' W 003°06'0 0.0
2018-Jun-18 17:00N 43°22' W 003°06'0 0.0
2018-Jun-18 16:30N 43°22' W 003°06'0 0.0
2018-Jun-18 16:00N 43°22' W 003°06'0 0.0
2018-Jun-18 15:27N 43°22' W 003°06'0 0.0
2018-Jun-18 14:51N 43°22' W 003°06'0 0.0
2018-Jun-18 14:30N 43°22' W 003°06'0 0.0
2018-Jun-18 14:00N 43°22' W 003°06'0 0.0
2018-Jun-18 13:30N 43°22' W 003°06'0 0.0
2018-Jun-18 13:00N 43°22' W 003°06'0 0.0
2018-Jun-18 12:30N 43°22' W 003°06'0 0.0
2018-Jun-18 11:57N 43°22' W 003°06'0 0.0
2018-Jun-18 11:24N 43°22' W 003°06'0 0.0
2018-Jun-18 10:57N 43°22' W 003°06'0 0.0
2018-Jun-18 10:30N 43°22' W 003°06'0 0.0
2018-Jun-18 10:00N 43°22' W 003°06'0 0.0
2018-Jun-18 09:30N 43°22' W 003°06'0 0.0
2018-Jun-18 09:00N 43°22' W 003°06'0 0.0
2018-Jun-18 08:30N 43°22' W 003°06'0 0.0
2018-Jun-18 08:00N 43°22' W 003°06'0 0.0
2018-Jun-18 07:30N 43°22' W 003°06'0 0.0
2018-Jun-18 07:00N 43°22' W 003°06'0 0.0
2018-Jun-18 06:30N 43°22' W 003°06'0 0.0
2018-Jun-18 05:57N 43°22' W 003°06'0 0.0
2018-Jun-18 05:27N 43°22' W 003°06'0 0.0
2018-Jun-18 05:00N 43°22' W 003°06'0 0.0
2018-Jun-18 04:30N 43°22' W 003°06'0 0.0
2018-Jun-18 04:00N 43°22' W 003°06'0 0.0
2018-Jun-18 03:30N 43°22' W 003°06'0 0.0
2018-Jun-18 03:00N 43°22' W 003°06'0 0.0
2018-Jun-18 02:30N 43°22' W 003°06'0 0.0
2018-Jun-18 01:57N 43°22' W 003°06'0 0.0
2018-Jun-18 01:30N 43°22' W 003°06'0 0.0
2018-Jun-18 01:00N 43°22' W 003°06'0 0.0
2018-Jun-18 00:30N 43°22' W 003°06'0 0.0
2018-Jun-17 23:57N 43°22' W 003°06'0 0.0
2018-Jun-17 23:30N 43°22' W 003°06'0 0.0
2018-Jun-17 23:00N 43°22' W 003°06'0 0.0
2018-Jun-17 22:27N 43°22' W 003°06'0 0.0
2018-Jun-17 22:00N 43°22' W 003°06'0 0.0
2018-Jun-17 21:30N 43°22' W 003°06'0 0.0
2018-Jun-17 21:00N 43°22' W 003°06'0 0.0
2018-Jun-17 20:30N 43°22' W 003°06'0 0.0
2018-Jun-17 20:00N 43°22' W 003°06'0 0.0
2018-Jun-17 19:30N 43°22' W 003°06'0 0.0
2018-Jun-17 19:00N 43°22' W 003°06'0 0.0
2018-Jun-17 18:30N 43°22' W 003°06'0 0.0
2018-Jun-17 18:00N 43°22' W 003°06'0 0.0
2018-Jun-17 17:30N 43°22' W 003°06'0 0.0
2018-Jun-17 17:00N 43°22' W 003°06'0 0.0
2018-Jun-17 16:30N 43°22' W 003°06'0 0.0
2018-Jun-17 16:00N 43°22' W 003°06'0 0.0
2018-Jun-17 15:30N 43°22' W 003°06'0 0.0
2018-Jun-17 15:00N 43°22' W 003°06'0 0.0
2018-Jun-17 14:30N 43°22' W 003°06'0 0.0
2018-Jun-17 14:00N 43°22' W 003°06'0 0.0
2018-Jun-17 13:27N 43°22' W 003°06'0 0.0
2018-Jun-17 13:00N 43°22' W 003°06'0 0.0
2018-Jun-17 12:30N 43°22' W 003°06'0 0.0
2018-Jun-17 12:00N 43°22' W 003°06'0 0.0
2018-Jun-17 11:30N 43°22' W 003°06'0 0.0
2018-Jun-17 11:00N 43°22' W 003°06'0 0.0
2018-Jun-17 10:30N 43°22' W 003°06'0 0.0
2018-Jun-17 10:00N 43°22' W 003°06'0 0.0
2018-Jun-17 09:30N 43°22' W 003°06'0 0.0
2018-Jun-17 09:00N 43°22' W 003°06'0 0.0
2018-Jun-17 08:30N 43°22' W 003°06'0 0.0
2018-Jun-17 07:57N 43°22' W 003°06'0 0.0
2018-Jun-17 07:30N 43°22' W 003°06'0 0.0
2018-Jun-17 07:00N 43°22' W 003°06'0 0.0
2018-Jun-17 06:30N 43°22' W 003°06'0 0.0
2018-Jun-17 06:00N 43°22' W 003°06'0 0.0
2018-Jun-17 05:30N 43°22' W 003°06'0 0.0
2018-Jun-17 05:00N 43°22' W 003°06'0 0.0
2018-Jun-17 04:30N 43°22' W 003°06'0 0.0
2018-Jun-17 03:51N 43°22' W 003°06'0 0.0
2018-Jun-17 03:30N 43°22' W 003°06'0 0.0
2018-Jun-17 03:00N 43°22' W 003°06'0 0.0
2018-Jun-17 02:30N 43°22' W 003°06'0 0.0
2018-Jun-17 01:57N 43°22' W 003°06'0 0.0
2018-Jun-17 01:30N 43°22' W 003°06'0 0.0
2018-Jun-17 01:00N 43°22' W 003°06'0 0.0
2018-Jun-17 00:30N 43°22' W 003°06'0 0.0
2018-Jun-17 00:00N 43°22' W 003°06'0 0.0
2018-Jun-16 23:30N 43°22' W 003°06'0 0.0
2018-Jun-16 23:00N 43°22' W 003°06'0 0.7
2018-Jun-16 22:31N 43°22' W 003°06'3 5.4
2018-Jun-16 22:00N 43°25' W 003°06'2 5.0
2018-Jun-16 21:30N 43°27' W 003°08'1 2.7
2018-Jun-16 21:00N 43°28' W 003°09'1 2.9
2018-Jun-16 20:30N 43°29' W 003°10'5 9.3
2018-Jun-16 20:00N 43°32' W 003°15'612.9
2018-Jun-16 19:30N 43°34' W 003°24'713.1
2018-Jun-16 18:59N 43°36' W 003°33'612.6
2018-Jun-16 18:30N 43°37' W 003°41'613.0
2018-Jun-16 18:00N 43°38' W 003°50'6012.9
2018-Jun-16 13:21N 43°50' W 005°11'612.9
2018-Jun-16 12:52N 43°52' W 005°20'1413.1
2018-Jun-16 11:49N 43°55' W 005°39'612.8
2018-Jun-16 11:20N 43°56' W 005°47'  

Dump ship's entire track history